Time;durP1;ratioP1;P1;durP2;ratioP2;P2;SDS_P1;SDS_P2;PMS_P1;PMS_P2;Temp;Humidity;BMP_temperature;BMP_pressure;BME280_temperature;BME280_humidity;BME280_pressure;Samples;Min_cycle;Max_cycle;Signal;HPM_P1;HPM_P2
2023/02/05 00:01:06;;;;;;;3.80;2.07;;;-3.80;99.90;;;;;;4145804;28;20271;-70
2023/02/05 00:03:07;;;;;;;5.13;2.27;;;-3.80;99.90;;;;;;4162059;28;20278;-65
2023/02/05 00:05:08;;;;;;;4.50;2.75;;;-3.80;99.90;;;;;;4165865;28;20286;-65
2023/02/05 00:07:09;;;;;;;8.47;3.70;;;-3.90;99.90;;;;;;4163300;28;20100;-65
2023/02/05 00:09:11;;;;;;;7.67;3.33;;;-3.90;99.90;;;;;;4163010;28;20320;-71
2023/02/05 00:11:12;;;;;;;14.70;6.22;;;-3.90;99.90;;;;;;4163422;28;20274;-70
2023/02/05 00:13:13;;;;;;;14.87;5.63;;;-3.90;99.90;;;;;;4144562;28;20175;-66
2023/02/05 00:15:14;;;;;;;9.75;4.22;;;-3.90;99.90;;;;;;4162674;28;20286;-65
2023/02/05 00:17:15;;;;;;;6.55;2.60;;;-4.00;99.90;;;;;;4162286;28;20075;-64
2023/02/05 00:19:16;;;;;;;4.25;2.55;;;-4.00;99.90;;;;;;4162901;28;20095;-63
2023/02/05 00:21:20;;;;;;;5.87;2.97;;;-4.00;99.90;;;;;;4174178;28;20446;-63
2023/02/05 00:23:21;;;;;;;4.43;2.42;;;-4.00;99.90;;;;;;4175426;28;20275;-65
2023/02/05 00:25:22;;;;;;;3.22;1.95;;;-4.00;99.90;;;;;;4163560;28;20061;-64
2023/02/05 00:27:24;;;;;;;7.60;4.07;;;-4.00;99.90;;;;;;4170630;28;20033;-69
2023/02/05 00:29:25;;;;;;;21.77;8.82;;;-4.10;99.90;;;;;;4178705;28;20266;-69
2023/02/05 00:31:26;;;;;;;9.20;4.77;;;-4.10;99.90;;;;;;4179729;28;20028;-67
2023/02/05 00:33:27;;;;;;;4.60;2.37;;;-4.10;99.90;;;;;;4178569;28;20661;-70
2023/02/05 00:35:28;;;;;;;6.75;2.42;;;-4.20;99.90;;;;;;4177778;28;20262;-65
2023/02/05 00:37:29;;;;;;;5.27;2.60;;;-4.20;99.90;;;;;;4171573;28;20425;-64
2023/02/05 00:39:30;;;;;;;3.63;2.13;;;-4.20;99.90;;;;;;4170903;28;20277;-65
2023/02/05 00:41:31;;;;;;;3.75;1.95;;;-4.20;99.90;;;;;;4172890;28;20037;-65
2023/02/05 00:43:33;;;;;;;3.42;2.10;;;-4.30;99.90;;;;;;4161865;28;20080;-72
2023/02/05 00:45:34;;;;;;;4.17;2.50;;;-4.30;99.90;;;;;;4164609;28;20506;-72
2023/02/05 00:47:35;;;;;;;4.13;2.20;;;-4.40;99.90;;;;;;4164356;28;20352;-71
2023/02/05 00:49:36;;;;;;;5.00;2.55;;;-4.40;99.90;;;;;;4171890;28;20535;-64
2023/02/05 00:51:37;;;;;;;4.97;2.43;;;-4.40;99.90;;;;;;4176470;28;20091;-65
2023/02/05 00:53:38;;;;;;;4.20;1.83;;;-4.40;99.90;;;;;;4178160;28;20282;-65
2023/02/05 00:55:40;;;;;;;4.50;2.25;;;-4.50;99.90;;;;;;4178381;28;20533;-72
2023/02/05 00:57:41;;;;;;;5.97;2.40;;;-4.50;99.90;;;;;;4173443;28;20057;-71
2023/02/05 00:59:42;;;;;;;4.90;2.33;;;-4.50;99.90;;;;;;4144574;28;20061;-64
2023/02/05 01:01:43;;;;;;;5.10;2.13;;;-4.50;99.90;;;;;;4179139;28;20045;-71
2023/02/05 01:03:44;;;;;;;7.05;2.45;;;-4.60;99.90;;;;;;4177986;28;20021;-68
2023/02/05 01:05:45;;;;;;;4.20;1.95;;;-4.60;99.90;;;;;;4153966;28;20104;-71
2023/02/05 01:07:46;;;;;;;4.70;2.35;;;-4.60;99.90;;;;;;4161593;28;20026;-64
2023/02/05 01:09:48;;;;;;;3.53;2.17;;;-4.70;99.90;;;;;;4167246;28;20049;-70
2023/02/05 01:11:49;;;;;;;5.18;3.10;;;-4.70;99.90;;;;;;4168752;28;20029;-71
2023/02/05 01:13:50;;;;;;;5.88;2.67;;;-4.80;99.90;;;;;;4177443;28;20049;-71
2023/02/05 01:15:51;;;;;;;3.58;2.08;;;-4.80;99.90;;;;;;4178537;28;20067;-63
2023/02/05 01:17:52;;;;;;;3.40;2.45;;;-4.90;99.90;;;;;;4177070;28;20029;-72
2023/02/05 01:19:53;;;;;;;5.38;2.30;;;-4.90;99.90;;;;;;4177307;28;20456;-72
2023/02/05 01:21:54;;;;;;;4.90;1.98;;;-4.90;99.90;;;;;;4165528;28;20083;-65
2023/02/05 01:23:58;;;;;;;5.78;2.58;;;-4.90;99.90;;;;;;4162558;28;20037;-65
2023/02/05 01:26:00;;;;;;;3.08;1.90;;;-5.00;99.90;;;;;;4160796;28;20057;-68
2023/02/05 01:28:01;;;;;;;4.18;2.42;;;-5.00;99.90;;;;;;4161836;28;20033;-65
2023/02/05 01:30:04;;;;;;;4.93;2.38;;;-5.10;99.90;;;;;;4170589;28;20095;-68
2023/02/05 01:32:05;;;;;;;5.43;2.17;;;-5.10;99.90;;;;;;4173551;28;20083;-65
2023/02/05 01:34:06;;;;;;;2.92;2.00;;;-5.10;99.90;;;;;;4172688;28;20037;-64
2023/02/05 01:36:08;;;;;;;3.42;1.90;;;-5.20;99.90;;;;;;4164448;28;20440;-66
2023/02/05 01:38:12;;;;;;;3.90;2.25;;;-5.20;99.90;;;;;;4161642;28;20033;-66
2023/02/05 01:40:15;;;;;;;6.35;2.38;;;-5.20;99.90;;;;;;4174019;28;20366;-65
2023/02/05 01:42:25;;;;;;;4.60;2.10;;;-5.20;99.90;;;;;;4177597;28;20051;-74
2023/02/05 01:44:29;;;;;;;4.45;2.33;;;-5.30;99.90;;;;;;4166841;28;20041;-73
2023/02/05 01:46:32;;;;;;;3.45;1.88;;;-5.30;99.90;;;;;;4162722;28;20111;-65
2023/02/05 01:48:37;;;;;;;4.47;2.05;;;-5.40;99.90;;;;;;4163401;28;20087;-69
2023/02/05 01:50:44;;;;;;;4.82;2.60;;;-5.40;99.90;;;;;;4165131;28;20389;-74
2023/02/05 01:52:45;;;;;;;3.33;1.88;;;-5.50;99.90;;;;;;4166679;28;20045;-65
2023/02/05 01:54:51;;;;;;;5.30;1.77;;;-5.50;99.90;;;;;;4161633;28;21088;-72
2023/02/05 01:57:03;;;;;;;6.45;2.35;;;-5.50;99.90;;;;;;4160883;28;20523;-71
2023/02/05 01:59:15;;;;;;;4.13;2.08;;;-5.50;99.90;;;;;;4161637;28;20465;-65
2023/02/05 02:01:16;;;;;;;3.95;2.20;;;-5.50;99.90;;;;;;4177343;28;20457;-73
2023/02/05 02:03:17;;;;;;;3.13;1.73;;;-5.50;99.90;;;;;;4174807;28;20033;-67
2023/02/05 02:05:19;;;;;;;2.25;1.80;;;-5.50;99.90;;;;;;4164779;28;20375;-65
2023/02/05 02:07:22;;;;;;;4.03;1.77;;;-5.50;99.90;;;;;;4161030;28;20083;-69
2023/02/05 02:09:23;;;;;;;3.88;1.92;;;-5.50;99.90;;;;;;4160981;28;20017;-65
2023/02/05 02:11:27;;;;;;;2.40;1.25;;;-5.50;99.90;;;;;;4164773;28;20100;-63
2023/02/05 02:13:31;;;;;;;3.63;2.08;;;-5.50;99.90;;;;;;4158911;28;20157;-64
2023/02/05 02:15:32;;;;;;;3.65;1.70;;;-5.60;99.90;;;;;;4175621;28;20103;-63
2023/02/05 02:17:38;;;;;;;4.13;1.80;;;-5.60;99.90;;;;;;4157196;28;20084;-70
2023/02/05 02:19:45;;;;;;;3.42;1.83;;;-5.60;99.90;;;;;;4174767;28;20087;-67
2023/02/05 02:22:20;;;;;;;3.15;1.60;;;-5.60;99.90;;;;;;4165664;28;20037;-72
2023/02/05 02:24:29;;;;;;;4.72;1.80;;;-5.60;99.90;;;;;;4145716;28;20034;-66
2023/02/05 02:26:42;;;;;;;2.83;1.25;;;-5.60;99.90;;;;;;4161952;28;20470;-72
2023/02/05 02:28:51;;;;;;;3.33;1.65;;;-5.60;99.90;;;;;;4161721;28;20076;-71
2023/02/05 02:31:03;;;;;;;3.47;1.73;;;-5.70;99.90;;;;;;4168592;28;20041;-72
2023/02/05 02:33:33;;;;;;;2.65;1.70;;;-5.70;99.90;;;;;;4170792;28;20037;-63
2023/02/05 02:35:59;;;;;;;3.30;1.40;;;-5.70;99.90;;;;;;4162235;28;20049;-74
2023/02/05 02:38:41;;;;;;;2.88;1.60;;;-5.70;99.90;;;;;;4161457;28;20480;-73
2023/02/05 02:40:52;;;;;;;3.78;2.42;;;-5.70;99.90;;;;;;4084600;28;20106;-69
2023/02/05 02:43:14;;;;;;;3.17;1.60;;;-5.80;99.90;;;;;;4163589;28;20037;-64
2023/02/05 02:45:20;;;;;;;3.50;1.60;;;-5.80;99.90;;;;;;4162112;28;20037;-72
2023/02/05 02:47:24;;;;;;;4.75;1.48;;;-5.90;99.90;;;;;;4160352;28;20505;-72
2023/02/05 02:49:40;;;;;;;3.40;1.73;;;-5.90;99.90;;;;;;4161968;28;20551;-64
2023/02/05 02:51:43;;;;;;;7.88;1.85;;;-5.90;99.90;;;;;;4167342;28;20692;-64
2023/02/05 02:53:48;;;;;;;3.55;1.85;;;-5.90;99.90;;;;;;4177222;28;20489;-66
2023/02/05 02:55:50;;;;;;;9.55;3.75;;;-5.90;99.90;;;;;;4177258;28;20034;-63
2023/02/05 02:57:53;;;;;;;8.68;3.83;;;-5.90;99.90;;;;;;4166523;28;20050;-72
2023/02/05 03:00:00;;;;;;;7.90;2.47;;;-5.90;99.90;;;;;;4160827;28;20033;-69
2023/02/05 03:02:04;;;;;;;6.22;2.00;;;-5.90;99.90;;;;;;4159927;28;20083;-72
2023/02/05 03:04:14;;;;;;;5.18;1.83;;;-5.90;99.90;;;;;;4160274;28;20037;-71
2023/02/05 03:06:17;;;;;;;3.85;2.10;;;-5.90;99.90;;;;;;4159890;28;20049;-72
2023/02/05 03:08:27;;;;;;;3.03;1.58;;;-5.90;99.90;;;;;;4166666;28;20037;-68
2023/02/05 03:11:05;;;;;;;4.28;2.35;;;-5.80;99.90;;;;;;4176810;28;20021;-69
2023/02/05 03:13:09;;;;;;;3.33;1.63;;;-5.80;99.90;;;;;;4143159;28;20442;-64
2023/02/05 03:15:11;;;;;;;3.63;1.55;;;-5.80;99.90;;;;;;4162513;28;20017;-71
2023/02/05 03:17:17;;;;;;;1.95;1.20;;;-5.80;99.90;;;;;;4162848;28;20067;-65
2023/02/05 03:19:18;;;;;;;3.80;1.48;;;-5.80;99.90;;;;;;4160598;28;20022;-64
2023/02/05 03:21:26;;;;;;;2.85;1.30;;;-5.80;99.90;;;;;;4168659;28;20037;-66
2023/02/05 03:23:29;;;;;;;3.53;1.42;;;-5.70;99.90;;;;;;4173058;28;20033;-68
2023/02/05 03:25:30;;;;;;;2.33;1.02;;;-5.70;99.90;;;;;;4169468;28;20041;-70
2023/02/05 03:27:32;;;;;;;2.25;1.10;;;-5.70;99.90;;;;;;4160511;28;20026;-64
2023/02/05 03:29:38;;;;;;;3.90;1.58;;;-5.70;99.90;;;;;;4161191;28;20091;-64
2023/02/05 03:31:45;;;;;;;5.10;1.67;;;-5.70;99.90;;;;;;4160030;28;20018;-69
2023/02/05 03:34:03;;;;;;;3.17;1.55;;;-5.70;99.90;;;;;;4143962;28;20048;-63
2023/02/05 03:36:28;;;;;;;10.63;1.73;;;-5.70;99.90;;;;;;4164005;28;20030;-72
2023/02/05 03:39:15;;;;;;;3.67;1.17;;;-5.70;99.90;;;;;;4155579;28;20050;-73
2023/02/05 03:41:55;;;;;;;2.83;1.20;;;-5.70;99.90;;;;;;4147318;28;20075;-65
2023/02/05 03:44:16;;;;;;;3.10;1.02;;;-5.70;99.90;;;;;;4166739;28;20075;-72
2023/02/05 03:46:43;;;;;;;2.30;1.25;;;-5.70;99.90;;;;;;4180248;28;20037;-64
2023/02/05 03:48:53;;;;;;;3.83;0.88;;;-5.70;99.90;;;;;;4150312;28;20049;-71
2023/02/05 03:51:09;;;;;;;2.05;0.80;;;-5.60;99.90;;;;;;4178347;28;20098;-68
2023/02/05 03:53:32;;;;;;;1.65;0.93;;;-5.60;99.90;;;;;;4164789;28;20099;-64
2023/02/05 03:55:40;;;;;;;2.28;0.88;;;-5.50;99.90;;;;;;4163703;28;20103;-72
2023/02/05 03:58:05;;;;;;;4.63;1.55;;;-5.50;99.90;;;;;;4147418;28;20037;-71
2023/02/05 04:00:07;;;;;;;3.78;1.38;;;-5.50;99.90;;;;;;4148321;28;20077;-73
2023/02/05 04:02:09;;;;;;;2.35;1.45;;;-5.50;99.90;;;;;;4158100;28;20444;-71
2023/02/05 04:04:10;;;;;;;5.65;1.67;;;-5.50;99.90;;;;;;4161336;28;20038;-69
2023/02/05 04:06:12;;;;;;;2.22;1.00;;;-5.50;99.90;;;;;;4150382;28;20165;-64
2023/02/05 04:08:13;;;;;;;2.67;1.17;;;-5.50;99.90;;;;;;4149167;28;20030;-63
2023/02/05 04:10:15;;;;;;;1.55;1.00;;;-5.50;99.90;;;;;;4159796;28;20046;-67
2023/02/05 04:12:16;;;;;;;1.83;1.17;;;-5.60;99.90;;;;;;4158827;28;20080;-64
2023/02/05 04:14:17;;;;;;;2.33;1.10;;;-5.60;99.90;;;;;;4162110;28;20063;-64
2023/02/05 04:16:18;;;;;;;4.45;1.10;;;-5.60;99.90;;;;;;4163391;28;20029;-64
2023/02/05 04:18:20;;;;;;;3.05;1.30;;;-5.60;99.90;;;;;;4162032;28;20033;-68
2023/02/05 04:20:21;;;;;;;2.15;1.20;;;-5.50;99.90;;;;;;4162959;28;20038;-64
2023/02/05 04:22:22;;;;;;;2.28;1.33;;;-5.50;99.90;;;;;;4162319;28;20458;-64
2023/02/05 04:24:24;;;;;;;3.47;1.60;;;-5.50;99.90;;;;;;4156427;28;20041;-71
2023/02/05 04:26:25;;;;;;;3.05;1.15;;;-5.50;99.90;;;;;;4146423;28;20034;-64
2023/02/05 04:28:26;;;;;;;2.35;1.15;;;-5.50;99.90;;;;;;4145881;28;20030;-69
2023/02/05 04:30:27;;;;;;;3.50;1.55;;;-5.50;99.90;;;;;;4146570;28;20042;-71
2023/02/05 04:32:29;;;;;;;2.45;1.13;;;-5.60;99.90;;;;;;4154672;28;20021;-65
2023/02/05 04:34:30;;;;;;;2.47;1.23;;;-5.50;99.90;;;;;;4157044;28;20441;-69
2023/02/05 04:36:31;;;;;;;2.60;1.40;;;-5.50;99.90;;;;;;4147089;28;20572;-65
2023/02/05 04:38:32;;;;;;;3.20;1.50;;;-5.50;99.90;;;;;;4146803;28;20084;-66
2023/02/05 04:40:34;;;;;;;3.00;1.55;;;-5.50;99.90;;;;;;4154567;28;20092;-65
2023/02/05 04:42:35;;;;;;;3.60;1.50;;;-5.50;99.90;;;;;;4148308;28;20493;-65
2023/02/05 04:44:36;;;;;;;4.40;2.33;;;-5.50;99.90;;;;;;4154804;28;20111;-64
2023/02/05 04:46:37;;;;;;;6.28;2.40;;;-5.50;99.90;;;;;;4162659;28;20498;-65
2023/02/05 04:48:38;;;;;;;3.25;1.95;;;-5.40;99.90;;;;;;4161326;28;20042;-69
2023/02/05 04:50:40;;;;;;;1.67;1.00;;;-5.40;99.90;;;;;;4150248;28;20080;-73
2023/02/05 04:52:41;;;;;;;3.97;1.80;;;-5.50;99.90;;;;;;4154162;28;20029;-68
2023/02/05 04:54:42;;;;;;;3.70;1.52;;;-5.40;99.90;;;;;;4145842;28;20088;-71
2023/02/05 04:56:45;;;;;;;2.67;1.27;;;-5.40;99.90;;;;;;4146153;28;20076;-68
2023/02/05 04:58:46;;;;;;;7.53;1.77;;;-5.40;99.90;;;;;;4162133;28;20029;-65
2023/02/05 05:00:47;;;;;;;5.07;1.55;;;-5.40;99.90;;;;;;4162181;28;20543;-65
2023/02/05 05:02:49;;;;;;;5.90;1.65;;;-5.40;99.90;;;;;;4143482;28;20957;-65
2023/02/05 05:04:50;;;;;;;4.00;1.30;;;-5.40;99.90;;;;;;4162162;28;20033;-66
2023/02/05 05:06:51;;;;;;;5.75;1.75;;;-5.40;99.90;;;;;;4160731;28;20100;-65
2023/02/05 05:08:53;;;;;;;2.70;1.48;;;-5.30;99.90;;;;;;4162708;28;20075;-73
2023/02/05 05:10:54;;;;;;;3.28;1.50;;;-5.30;99.90;;;;;;4160988;28;20347;-67
2023/02/05 05:12:55;;;;;;;3.88;1.55;;;-5.40;99.90;;;;;;4163472;28;20037;-64
2023/02/05 05:14:57;;;;;;;4.25;2.03;;;-5.40;99.90;;;;;;4160882;28;20045;-64
2023/02/05 05:16:58;;;;;;;4.28;1.92;;;-5.40;99.90;;;;;;4162409;28;20034;-72
2023/02/05 05:18:59;;;;;;;2.83;1.48;;;-5.30;99.90;;;;;;4143277;28;20042;-69
2023/02/05 05:21:02;;;;;;;3.53;1.63;;;-5.30;99.90;;;;;;4167161;28;20037;-69
2023/02/05 05:23:03;;;;;;;2.28;1.58;;;-5.40;99.90;;;;;;4175319;28;20041;-72
2023/02/05 05:25:04;;;;;;;5.70;1.95;;;-5.40;99.90;;;;;;4166194;28;20640;-65
2023/02/05 05:27:06;;;;;;;3.30;1.73;;;-5.30;99.90;;;;;;4161865;28;20041;-65
2023/02/05 05:29:07;;;;;;;4.07;2.08;;;-5.30;99.90;;;;;;4161585;28;20029;-64
2023/02/05 05:31:18;;;;;;;2.28;1.50;;;-5.30;99.90;;;;;;4161418;28;20371;-71
2023/02/05 05:33:19;;;;;;;2.80;1.73;;;-5.30;99.90;;;;;;4160576;28;20045;-64
2023/02/05 05:35:20;;;;;;;3.83;1.48;;;-5.30;99.90;;;;;;4161410;28;20486;-65
2023/02/05 05:37:22;;;;;;;2.00;1.20;;;-5.20;99.90;;;;;;4161374;28;20076;-65
2023/02/05 05:44:02;;;;;;;2.83;1.38;;;-5.20;99.90;;;;;;4177825;28;20032;-66
2023/02/05 05:46:05;;;;;;;3.92;2.05;;;-5.20;99.90;;;;;;4168842;28;20056;-64
2023/02/05 05:48:07;;;;;;;7.07;1.88;;;-5.20;99.90;;;;;;4158896;28;20067;-70
2023/02/05 05:50:09;;;;;;;4.82;1.65;;;-5.30;99.90;;;;;;4167902;28;20162;-73
2023/02/05 05:52:10;;;;;;;7.03;2.50;;;-5.30;99.90;;;;;;4161880;28;20442;-64
2023/02/05 05:54:12;;;;;;;5.72;2.60;;;-5.40;99.90;;;;;;4166983;28;20036;-71
2023/02/05 05:56:14;;;;;;;4.43;2.28;;;-5.40;99.90;;;;;;4176019;28;20055;-64
2023/02/05 05:58:15;;;;;;;6.68;2.85;;;-5.40;99.90;;;;;;4177140;28;20052;-65
2023/02/05 06:00:17;;;;;;;7.55;2.28;;;-5.50;99.90;;;;;;4176767;28;20440;-69
2023/02/05 06:02:18;;;;;;;4.63;2.17;;;-5.60;99.90;;;;;;4160691;28;20095;-72
2023/02/05 06:04:19;;;;;;;4.25;2.03;;;-5.60;99.90;;;;;;4161833;28;20037;-73
2023/02/05 06:06:20;;;;;;;4.50;2.42;;;-5.70;99.90;;;;;;4160265;28;20544;-73
2023/02/05 06:08:21;;;;;;;5.30;2.00;;;-5.70;99.90;;;;;;4160815;28;20037;-73
2023/02/05 06:10:23;;;;;;;5.43;2.38;;;-5.70;99.90;;;;;;4160836;28;20106;-72
2023/02/05 06:12:25;;;;;;;4.05;1.80;;;-5.70;99.90;;;;;;4161699;28;20025;-71
2023/02/05 06:14:26;;;;;;;5.32;3.05;;;-5.70;99.90;;;;;;4177711;28;20355;-67
2023/02/05 06:16:27;;;;;;;5.25;2.33;;;-5.60;99.90;;;;;;4176252;28;20443;-69
2023/02/05 06:18:28;;;;;;;4.95;2.17;;;-5.60;99.90;;;;;;4177836;28;20090;-71
2023/02/05 06:20:29;;;;;;;6.97;3.72;;;-5.50;99.90;;;;;;4166043;28;20425;-64
2023/02/05 06:22:30;;;;;;;3.45;2.20;;;-5.50;99.90;;;;;;4174187;28;20082;-65
2023/02/05 06:24:31;;;;;;;6.13;2.50;;;-5.50;99.90;;;;;;4159715;28;20033;-66
2023/02/05 06:26:32;;;;;;;8.35;3.75;;;-5.50;99.90;;;;;;4168651;28;20509;-65
2023/02/05 06:28:34;;;;;;;5.00;2.25;;;-5.60;99.90;;;;;;4172739;28;20037;-72
2023/02/05 06:30:35;;;;;;;5.20;2.65;;;-5.60;99.90;;;;;;4177271;28;20049;-64
2023/02/05 06:32:36;;;;;;;6.65;2.60;;;-5.50;99.90;;;;;;4176907;28;20033;-73
2023/02/05 06:34:37;;;;;;;5.68;2.70;;;-5.40;99.90;;;;;;4177297;28;20091;-64
2023/02/05 06:36:38;;;;;;;5.75;2.72;;;-5.40;99.90;;;;;;4175163;28;20071;-65
2023/02/05 06:38:39;;;;;;;6.35;2.95;;;-5.40;99.90;;;;;;4177621;28;20075;-63
2023/02/05 06:40:40;;;;;;;5.28;2.65;;;-5.40;99.90;;;;;;4176469;28;20029;-64
2023/02/05 06:42:41;;;;;;;6.43;3.30;;;-5.40;99.90;;;;;;4176394;28;21657;-64
2023/02/05 06:44:43;;;;;;;6.32;2.80;;;-5.40;99.90;;;;;;4177448;28;20033;-72
2023/02/05 06:46:44;;;;;;;7.50;3.55;;;-5.40;99.90;;;;;;4175997;28;20049;-64
2023/02/05 06:48:46;;;;;;;8.07;3.47;;;-5.30;99.90;;;;;;4174260;28;20029;-63
2023/02/05 06:50:47;;;;;;;5.60;3.17;;;-5.30;99.90;;;;;;4160125;28;20425;-64
2023/02/05 06:52:50;;;;;;;6.60;3.95;;;-5.20;99.90;;;;;;4143401;28;20419;-68
2023/02/05 06:54:51;;;;;;;7.93;4.00;;;-5.20;99.90;;;;;;4170371;28;20103;-67
2023/02/05 06:56:52;;;;;;;7.07;3.30;;;-5.20;99.90;;;;;;4176812;28;20645;-64
2023/02/05 06:58:53;;;;;;;9.25;3.47;;;-5.20;99.90;;;;;;4175676;28;20048;-64
2023/02/05 07:00:54;;;;;;;9.60;2.92;;;-5.20;99.90;;;;;;4177400;28;20041;-65
2023/02/05 07:02:55;;;;;;;10.63;3.03;;;-5.10;99.90;;;;;;4175551;28;20485;-65
2023/02/05 07:04:57;;;;;;;4.40;2.50;;;-5.10;99.90;;;;;;4176132;28;20100;-73
2023/02/05 07:06:58;;;;;;;7.57;3.17;;;-5.10;99.90;;;;;;4175953;28;20066;-65
2023/02/05 07:08:59;;;;;;;5.78;3.08;;;-5.10;99.90;;;;;;4180150;28;20036;-71
2023/02/05 07:11:01;;;;;;;6.38;3.33;;;-5.00;99.90;;;;;;4179882;28;20029;-70
2023/02/05 07:13:02;;;;;;;7.03;3.10;;;-4.90;99.90;;;;;;4149043;28;20081;-65
2023/02/05 07:15:03;;;;;;;8.18;3.53;;;-4.80;99.90;;;;;;4177720;28;20021;-65
2023/02/05 07:17:06;;;;;;;10.43;3.70;;;-4.80;99.90;;;;;;4179455;28;20024;-73
2023/02/05 07:19:07;;;;;;;7.32;3.30;;;-4.70;99.90;;;;;;4180068;28;20029;-65
2023/02/05 07:21:12;;;;;;;5.72;3.13;;;-4.50;99.90;;;;;;4173198;28;20477;-71
2023/02/05 07:23:14;;;;;;;9.93;4.68;;;-4.40;99.90;;;;;;4164085;28;20045;-64
2023/02/05 07:25:15;;;;;;;10.95;5.13;;;-4.10;99.90;;;;;;4145144;28;20111;-65
2023/02/05 07:27:16;;;;;;;9.23;4.50;;;-3.70;99.90;;;;;;4164411;28;20103;-64
2023/02/05 07:29:17;;;;;;;18.98;7.68;;;-3.20;99.90;;;;;;4163276;28;20041;-65
2023/02/05 07:31:18;;;;;;;25.83;8.33;;;-3.10;99.90;;;;;;4148204;28;20038;-70
2023/02/05 07:33:20;;;;;;;54.57;21.17;;;-3.00;99.90;;;;;;4162944;28;20266;-65
2023/02/05 07:35:21;;;;;;;38.25;15.65;;;-2.90;99.90;;;;;;4164024;28;20337;-64
2023/02/05 07:37:22;;;;;;;42.30;17.40;;;-2.80;99.90;;;;;;4163775;28;20090;-64
2023/02/05 07:39:23;;;;;;;26.37;14.13;;;-2.30;99.90;;;;;;4165747;28;20275;-72
2023/02/05 07:41:27;;;;;;;13.37;8.03;;;-1.90;99.90;;;;;;4163871;28;20829;-63
2023/02/05 07:43:28;;;;;;;15.87;7.27;;;-1.80;99.90;;;;;;4163349;28;20275;-63
2023/02/05 07:45:29;;;;;;;12.43;5.87;;;-1.40;99.90;;;;;;4159494;28;20354;-65
2023/02/05 07:47:30;;;;;;;6.90;3.77;;;-1.10;99.90;;;;;;4179436;28;20697;-69
2023/02/05 07:49:32;;;;;;;5.63;3.50;;;-1.40;99.90;;;;;;4178747;28;20332;-64
2023/02/05 07:51:33;;;;;;;7.50;3.93;;;-1.50;99.90;;;;;;4167462;28;20309;-66
2023/02/05 07:53:34;;;;;;;6.73;4.13;;;-1.80;99.90;;;;;;4163400;28;20647;-63
2023/02/05 07:55:35;;;;;;;5.83;3.73;;;-2.20;99.90;;;;;;4177422;28;20331;-63
2023/02/05 07:57:36;;;;;;;11.10;5.90;;;-2.10;99.90;;;;;;4168744;28;20294;-64
2023/02/05 07:59:37;;;;;;;7.30;4.33;;;-1.90;99.90;;;;;;4162594;28;20286;-69
2023/02/05 08:01:38;;;;;;;11.53;5.43;;;-1.50;99.90;;;;;;4162921;28;20291;-64
2023/02/05 08:03:39;;;;;;;9.80;4.77;;;-1.20;99.90;;;;;;4161789;28;20825;-64
2023/02/05 08:05:41;;;;;;;5.50;3.20;;;-1.00;99.90;;;;;;4168525;28;20274;-64
2023/02/05 08:07:42;;;;;;;9.03;4.33;;;-1.10;99.90;;;;;;4178172;28;20704;-64
2023/02/05 08:09:43;;;;;;;5.27;3.50;;;-1.10;99.90;;;;;;4179032;28;20734;-65
2023/02/05 08:11:44;;;;;;;6.87;3.83;;;-1.10;99.90;;;;;;4166983;28;20308;-64
2023/02/05 08:13:45;;;;;;;6.70;3.80;;;-1.00;99.90;;;;;;4178861;28;20262;-69
2023/02/05 08:15:46;;;;;;;6.20;3.63;;;-0.80;99.90;;;;;;4178816;28;20656;-64
2023/02/05 08:17:47;;;;;;;8.70;5.10;;;-0.70;99.90;;;;;;4178025;28;20311;-65
2023/02/05 08:19:49;;;;;;;11.23;5.43;;;-0.60;99.90;;;;;;4166703;28;20263;-65
2023/02/05 08:21:51;;;;;;;8.43;3.80;;;-0.90;99.90;;;;;;4166018;28;20275;-65
2023/02/05 08:23:52;;;;;;;8.93;4.50;;;-1.10;99.90;;;;;;4162247;28;20279;-64
2023/02/05 08:25:54;;;;;;;11.27;6.13;;;-1.20;99.90;;;;;;4163964;28;20286;-64
2023/02/05 08:27:57;;;;;;;12.03;5.87;;;-1.20;99.90;;;;;;4170438;28;20316;-73
2023/02/05 08:29:58;;;;;;;6.87;4.57;;;-1.50;99.90;;;;;;4177373;28;20262;-64
2023/02/05 08:31:59;;;;;;;5.57;3.80;;;-1.70;99.90;;;;;;4178796;28;20254;-66
2023/02/05 08:34:01;;;;;;;8.40;4.30;;;-1.80;99.90;;;;;;4177515;28;21134;-66
2023/02/05 08:36:02;;;;;;;5.50;3.10;;;-2.10;99.90;;;;;;4178013;28;20270;-69
2023/02/05 08:38:03;;;;;;;6.73;3.80;;;-2.30;99.90;;;;;;4177788;28;20319;-64
2023/02/05 08:40:05;;;;;;;7.13;3.67;;;-2.50;99.90;;;;;;4179145;28;20738;-66
2023/02/05 08:42:06;;;;;;;7.73;3.97;;;-2.60;99.90;;;;;;4178019;28;20254;-64
2023/02/05 08:44:07;;;;;;;8.60;4.10;;;-2.60;99.90;;;;;;4178146;28;20308;-64
2023/02/05 08:46:10;;;;;;;7.43;3.97;;;-2.60;99.90;;;;;;4177493;28;20250;-66
2023/02/05 08:48:11;;;;;;;6.10;3.60;;;-2.20;99.90;;;;;;4178120;28;20266;-64
2023/02/05 08:50:12;;;;;;;6.53;3.60;;;-2.00;99.90;;;;;;4177796;28;20276;-64
2023/02/05 08:52:13;;;;;;;6.53;4.03;;;-1.80;99.90;;;;;;4173622;28;20344;-65
2023/02/05 08:54:14;;;;;;;8.50;3.80;;;-1.80;99.90;;;;;;4177163;28;20278;-65
2023/02/05 08:56:16;;;;;;;6.40;3.30;;;-1.50;99.90;;;;;;4175802;28;20324;-65
2023/02/05 08:58:17;;;;;;;7.67;4.63;;;-1.40;99.90;;;;;;4179229;28;20696;-71
2023/02/05 09:00:20;;;;;;;8.90;5.27;;;-1.20;99.90;;;;;;4177371;28;20262;-64
2023/02/05 09:02:21;;;;;;;10.17;5.37;;;-1.10;99.90;;;;;;4176818;28;20281;-67
2023/02/05 09:04:22;;;;;;;8.50;4.47;;;-0.80;99.90;;;;;;4173148;28;20274;-66
2023/02/05 09:06:25;;;;;;;10.80;5.00;;;-0.70;99.90;;;;;;4170711;28;20824;-67
2023/02/05 09:08:27;;;;;;;8.50;4.20;;;-0.50;99.90;;;;;;4167885;28;20281;-73
2023/02/05 09:10:28;;;;;;;8.50;4.97;;;-0.50;99.90;;;;;;4179352;28;20328;-68
2023/02/05 09:12:29;;;;;;;7.10;4.07;;;-0.40;99.90;;;;;;4176537;28;20343;-66
2023/02/05 09:14:35;;;;;;;9.30;5.33;;;-0.50;99.90;;;;;;4183023;28;20306;-75
2023/02/05 09:16:36;;;;;;;10.87;5.10;;;-0.60;99.90;;;;;;4162374;28;20270;-65
2023/02/05 09:18:37;;;;;;;5.83;4.00;;;-0.60;99.90;;;;;;4164308;28;20819;-70
2023/02/05 09:20:44;;;;;;;9.80;5.27;;;-0.70;99.90;;;;;;4176041;28;20324;-64
2023/02/05 09:22:45;;;;;;;9.87;5.10;;;-0.80;99.90;;;;;;4177766;28;20265;-70
2023/02/05 09:24:46;;;;;;;7.43;3.60;;;-1.00;99.90;;;;;;4177393;28;20824;-64
2023/02/05 09:26:47;;;;;;;9.90;4.23;;;-1.20;99.90;;;;;;4177789;28;20297;-65
2023/02/05 09:28:48;;;;;;;5.90;2.77;;;-1.30;99.90;;;;;;4178440;28;20250;-66
2023/02/05 09:30:50;;;;;;;7.50;3.70;;;-1.50;99.90;;;;;;4176743;28;20278;-63
2023/02/05 09:32:51;;;;;;;7.27;3.40;;;-1.30;99.90;;;;;;4177579;28;20266;-72
2023/02/05 09:34:52;;;;;;;7.23;3.20;;;-1.20;99.90;;;;;;4177058;28;20282;-64
2023/02/05 09:36:53;;;;;;;4.90;3.27;;;-1.10;99.90;;;;;;4178392;28;20332;-66
2023/02/05 09:38:55;;;;;;;6.30;3.63;;;-1.00;99.90;;;;;;4176550;28;20298;-65
2023/02/05 09:40:58;;;;;;;6.43;3.03;;;-0.80;99.90;;;;;;4169584;28;20324;-67
2023/02/05 09:43:21;;;;;;;8.47;3.30;;;-0.70;99.90;;;;;;4175966;28;20315;-66
2023/02/05 09:45:37;;;;;;;7.27;3.40;;;-0.70;99.90;;;;;;4159613;28;20343;-69
2023/02/05 09:48:03;;;;;;;6.90;3.10;;;-0.80;99.90;;;;;;4176887;28;20298;-67
2023/02/05 09:50:16;;;;;;;5.80;3.53;;;-1.00;99.90;;;;;;4178056;28;20324;-67
2023/02/05 09:52:21;;;;;;;5.90;2.80;;;-1.40;99.90;;;;;;4177227;28;20331;-67
2023/02/05 09:54:34;;;;;;;5.60;3.60;;;-1.60;99.90;;;;;;4178160;28;20282;-66
2023/02/05 09:56:37;;;;;;;7.87;3.50;;;-1.70;99.90;;;;;;4167307;28;20267;-68
2023/02/05 09:58:45;;;;;;;4.90;3.07;;;-1.70;99.90;;;;;;4161747;28;20329;-68
2023/02/05 10:01:06;;;;;;;8.47;4.10;;;-1.60;99.90;;;;;;4160527;28;20275;-74
2023/02/05 10:03:11;;;;;;;6.25;3.10;;;-1.50;99.90;;;;;;4162400;28;20262;-71
2023/02/05 10:05:14;;;;;;;11.30;4.57;;;-1.50;99.90;;;;;;4176861;28;20037;-67
2023/02/05 10:07:28;;;;;;;5.73;3.47;;;-1.30;99.90;;;;;;4178023;28;20348;-66
2023/02/05 10:09:47;;;;;;;7.13;4.00;;;-1.10;99.90;;;;;;4168081;28;20309;-67
2023/02/05 10:11:54;;;;;;;8.93;3.60;;;-1.10;99.90;;;;;;4160541;28;20755;-69
2023/02/05 10:14:22;;;;;;;8.03;4.17;;;-1.00;99.90;;;;;;4160319;28;20271;-70
2023/02/05 10:16:39;;;;;;;7.00;3.20;;;-1.00;99.90;;;;;;4168523;28;20304;-67
2023/02/05 10:19:21;;;;;;;7.13;3.97;;;-1.20;99.90;;;;;;4160478;28;20598;-70
2023/02/05 10:21:48;;;;;;;6.87;3.40;;;-1.40;99.90;;;;;;4118486;28;20279;-74
2023/02/05 10:24:23;;;;;;;12.13;5.97;;;-1.70;99.90;;;;;;4161169;28;20270;-71
2023/02/05 10:26:41;;;;;;;9.87;4.63;;;-1.90;99.90;;;;;;4159827;28;20329;-73
2023/02/05 10:29:04;;;;;;;15.93;7.57;;;-2.20;99.90;;;;;;4161543;28;20305;-67
2023/02/05 10:31:33;;;;;;;20.13;9.37;;;-2.40;99.90;;;;;;4163645;28;20836;-72
2023/02/05 10:34:06;;;;;;;31.50;12.90;;;-2.50;99.90;;;;;;4175484;28;20737;-68
2023/02/05 10:36:09;;;;;;;27.30;12.00;;;-2.50;99.90;;;;;;4174655;28;21959;-69
2023/02/05 10:38:25;;;;;;;22.37;10.37;;;-2.30;99.90;;;;;;4176042;28;20668;-70
2023/02/05 10:40:30;;;;;;;14.57;6.67;;;-2.20;99.90;;;;;;4151404;28;20288;-71
2023/02/05 10:42:40;;;;;;;23.77;9.57;;;-2.00;99.90;;;;;;4160267;28;20340;-70
2023/02/05 10:44:49;;;;;;;22.73;9.45;;;-1.90;99.90;;;;;;4163253;28;20360;-73
2023/02/05 10:46:57;;;;;;;7.73;4.53;;;-1.90;99.90;;;;;;4179192;28;20514;-79
2023/02/05 10:49:07;;;;;;;10.23;4.10;;;-1.80;99.90;;;;;;4161211;28;20780;-72
2023/02/05 10:51:15;;;;;;;11.48;5.72;;;-1.80;99.90;;;;;;4160218;28;20277;-70
2023/02/05 10:53:20;;;;;;;19.43;8.33;;;-1.70;99.90;;;;;;4175052;28;20045;-74